.
WxDataArchive / Data Records for 2011-11-24
2011-11-23 November 2011 2011-11-25

Data Records for Thursday, 24 November 2011

Time	Temp	Chill	HIndex	Humid	Dewpt	 Wind 	HiWind	WindDir	Rain 	Barom 
-----	----	-----	------	-----	-----	------	------	-------	-----	----- 
00:00	37.9	37.9	37.9	94	36.3	1	2	248	0.00	30.267 
00:05	37.9	37.9	37.9	94	36.3	1	4	248	0.00	30.267 
00:10	37.8	37.8	37.8	94	36.2	0	2	248	0.00	30.267 
00:15	37.8	37.8	37.8	94	36.2	0	3	248	0.00	30.266 
00:20	37.6	37.6	37.6	94	36.0	1	3	248	0.00	30.266 
00:25	37.6	37.6	37.6	94	36.0	0	1	248	0.00	30.266 
00:30	37.6	37.6	37.6	94	36.0	0	3	248	0.00	30.259 
00:35	37.5	37.5	37.5	94	35.9	0	2	248	0.00	30.259 
00:40	37.5	37.5	37.5	94	35.9	1	3	248	0.00	30.259 
00:45	37.5	37.5	37.5	94	35.9	0	2	248	0.00	30.255 
00:50	37.3	37.3	37.3	94	35.7	1	4	248	0.00	30.255 
00:55	37.3	37.3	37.3	94	35.7	1	2	248	0.00	30.255 
01:00	37.3	37.3	37.3	94	35.7	1	2	248	0.00	30.250 
01:05	37.3	37.3	37.3	94	35.7	1	3	248	0.00	30.250 
01:10	37.3	37.3	37.3	94	35.7	0	2	248	0.00	30.250 
01:15	37.3	37.3	37.3	94	35.7	0	2	248	0.00	30.244 
01:20	37.3	37.3	37.3	94	35.7	1	3	248	0.00	30.244 
01:25	37.2	37.2	37.2	94	35.6	1	3	248	0.00	30.244 
01:30	37.2	37.2	37.2	94	35.6	1	2	248	0.00	30.247 
01:35	37.2	37.2	37.2	94	35.6	1	3	248	0.00	30.247 
01:40	37.2	37.2	37.2	94	35.6	1	3	248	0.00	30.247 
01:45	37.2	37.2	37.2	94	35.6	1	3	248	0.00	30.245 
01:50	37.0	37.0	37.0	94	35.4	1	3	248	0.00	30.245 
01:55	37.2	37.2	37.2	94	35.6	1	4	248	0.00	30.245 
02:00	37.0	37.0	37.0	94	35.4	1	3	248	0.00	30.242 
02:05	37.0	37.0	37.0	94	35.4	1	4	248	0.00	30.242 
02:10	37.0	37.0	37.0	94	35.4	1	5	248	0.00	30.242 
02:15	37.0	37.0	37.0	94	35.4	0	3	248	0.00	30.240 
02:20	36.9	36.9	36.9	94	35.3	0	2	248	0.00	30.240 
02:25	36.9	36.9	36.9	94	35.3	1	2	248	0.00	30.240 
02:30	36.9	36.9	36.9	94	35.3	0	2	248	0.00	30.243 
02:35	36.8	36.8	36.8	94	35.2	0	2	248	0.00	30.243 
02:40	36.8	36.8	36.8	94	35.2	0	2	248	0.00	30.243 
02:45	36.9	36.9	36.9	94	35.3	1	4	248	0.00	30.249 
02:50	37.0	37.0	37.0	94	35.4	1	3	248	0.00	30.249 
02:55	37.2	37.2	37.2	94	35.6	1	3	248	0.00	30.249 
03:00	37.3	37.3	37.3	94	35.7	1	3	248	0.00	30.240 
03:05	37.3	37.3	37.3	94	35.7	1	4	248	0.00	30.240 
03:10	37.5	37.5	37.5	94	35.9	2	4	248	0.00	30.240 
03:15	37.6	37.6	37.6	94	36.0	1	4	248	0.00	30.244 
03:20	37.5	37.5	37.5	94	35.9	2	4	248	0.00	30.244 
03:25	37.5	37.5	37.5	94	35.9	1	3	248	0.00	30.244 
03:30	37.5	37.5	37.5	94	35.9	1	5	248	0.00	30.244 
03:35	37.5	37.5	37.5	94	35.9	2	5	248	0.00	30.244 
03:40	37.3	37.3	37.3	94	35.7	1	4	248	0.00	30.244 
03:45	37.3	37.3	37.3	94	35.7	1	6	248	0.00	30.249 
03:50	37.3	37.3	37.3	95	36.0	2	6	248	0.00	30.249 
03:55	37.5	37.5	37.5	95	36.2	1	3	248	0.00	30.249 
04:00	37.5	37.5	37.5	95	36.2	1	3	248	0.00	30.247 
04:05	37.5	37.5	37.5	95	36.2	1	4	248	0.00	30.247 
04:10	37.5	37.5	37.5	95	36.2	2	6	248	0.00	30.247 
04:15	37.5	37.5	37.5	95	36.2	1	3	270	0.00	30.249 
04:20	37.5	37.5	37.5	95	36.2	1	5	270	0.00	30.249 
04:25	37.5	37.5	37.5	95	36.2	2	5	248	0.00	30.249 
04:30	37.3	37.3	37.3	95	36.0	1	4	248	0.00	30.250 
04:35	37.5	37.5	37.5	95	36.2	1	3	248	0.00	30.250 
04:40	37.3	37.3	37.3	95	36.0	2	7	248	0.00	30.250 
04:45	37.3	37.3	37.3	95	36.0	0	2	248	0.00	30.246 
04:50	37.3	37.3	37.3	95	36.0	1	3	248	0.00	30.246 
04:55	37.5	37.5	37.5	95	36.2	1	6	225	0.00	30.246 
05:00	37.5	37.5	37.5	95	36.2	1	4	248	0.00	30.241 
05:05	37.5	37.5	37.5	95	36.2	1	4	248	0.00	30.241 
05:10	37.3	37.3	37.3	95	36.0	2	5	248	0.00	30.241 
05:15	37.3	37.3	37.3	95	36.0	1	4	225	0.00	30.250 
05:20	37.3	37.3	37.3	95	36.0	2	4	248	0.00	30.250 
05:25	37.3	37.3	37.3	95	36.0	0	3	270	0.00	30.250 
05:30	37.3	37.3	37.3	95	36.0	1	4	270	0.00	30.257 
05:35	37.2	37.2	37.2	95	35.9	1	3	248	0.00	30.257 
05:40	37.0	37.0	37.0	95	35.7	2	5	248	0.00	30.257 
05:45	37.0	37.0	37.0	95	35.7	0	2	248	0.00	30.260 
05:50	36.9	36.9	36.9	95	35.6	1	3	248	0.00	30.260 
05:55	36.8	36.8	36.8	95	35.5	1	3	248	0.00	30.260 
06:00	36.6	36.6	36.6	95	35.3	2	4	248	0.00	30.260 
06:05	36.5	36.5	36.5	95	35.2	2	5	248	0.00	30.260 
06:10	36.5	36.5	36.5	95	35.2	1	4	248	0.00	30.260 
06:15	36.3	36.3	36.3	95	35.0	1	3	248	0.00	30.266 
06:20	36.2	36.2	36.2	95	34.9	2	6	270	0.00	30.266 
06:25	36.0	36.0	36.0	95	34.7	1	3	248	0.00	30.266 
06:30	35.9	35.9	35.9	95	34.6	1	4	248	0.00	30.266 
06:35	35.9	35.9	35.9	95	34.6	2	5	248	0.00	30.266 
06:40	35.9	35.9	35.9	95	34.6	1	3	270	0.00	30.266 
06:45	35.8	35.8	35.8	95	34.5	2	5	248	0.00	30.273 
06:50	35.8	35.8	35.8	95	34.5	2	6	248	0.00	30.273 
06:55	35.8	35.8	35.8	95	34.5	2	3	248	0.00	30.273 
07:00	35.8	35.8	35.8	95	34.5	1	4	248	0.00	30.278 
07:05	35.9	35.9	35.9	95	34.6	1	4	248	0.00	30.278 
07:10	35.9	35.9	35.9	96	34.9	2	5	248	0.00	30.278 
07:15	35.9	35.9	35.9	96	34.9	2	5	248	0.00	30.278 
07:20	36.0	36.0	36.0	95	34.7	2	4	248	0.00	30.278 
07:25	36.0	36.0	36.0	96	35.0	1	4	248	0.00	30.278 
07:30	36.0	36.0	36.0	96	35.0	1	4	248	0.00	30.278 
07:35	36.2	36.2	36.2	96	35.2	1	5	248	0.00	30.278 
07:40	36.2	36.2	36.2	96	35.2	2	5	248	0.00	30.278 
07:45	36.3	36.3	36.3	96	35.3	1	4	225	0.00	30.287 
07:50	36.5	36.5	36.5	96	35.5	1	4	248	0.00	30.287 
07:55	36.5	36.5	36.5	96	35.5	2	5	248	0.00	30.287 
08:00	36.6	36.6	36.6	96	35.6	1	3	248	0.00	30.294 
08:05	36.6	36.6	36.6	96	35.6	1	4	270	0.00	30.294 
08:10	36.8	36.8	36.8	96	35.8	1	3	248	0.00	30.294 
08:15	36.9	36.9	36.9	96	35.9	1	4	248	0.00	30.295 
08:20	36.9	36.9	36.9	96	35.9	1	3	248	0.00	30.295 
08:25	37.0	37.0	37.0	96	36.0	2	5	248	0.00	30.295 
08:30	37.0	37.0	37.0	96	36.0	1	4	248	0.00	30.296 
08:35	37.2	37.2	37.2	96	36.2	2	5	248	0.00	30.296 
08:40	37.2	37.2	37.2	96	36.2	2	6	248	0.00	30.296 
08:45	37.2	37.2	37.2	96	36.2	3	7	248	0.00	30.296 
08:50	37.2	37.2	37.2	96	36.2	2	5	248	0.00	30.296 
08:55	37.3	37.3	37.3	96	36.3	2	6	270	0.00	30.296 
09:00	37.3	37.3	37.3	96	36.3	1	6	248	0.00	30.298 
09:05	37.5	37.5	37.5	96	36.5	2	4	248	0.00	30.298 
09:10	37.5	37.5	37.5	96	36.5	0	2	248	0.00	30.298 
09:15	37.6	37.6	37.6	96	36.6	1	4	270	0.00	30.302 
09:20	37.6	37.6	37.6	96	36.6	2	5	248	0.00	30.302 
09:25	37.6	37.6	37.6	96	36.6	2	5	248	0.00	30.302 
09:30	37.8	37.8	37.8	96	36.8	0	3	248	0.00	30.308 
09:35	37.8	37.8	37.8	96	36.8	1	5	248	0.00	30.308 
09:40	37.8	37.8	37.8	96	36.8	1	4	270	0.00	30.308 
09:45	37.9	37.9	37.9	96	36.9	1	5	248	0.00	30.310 
09:50	37.9	37.9	37.9	96	36.9	2	6	248	0.00	30.310 
09:55	38.0	38.0	38.0	96	37.0	0	2	248	0.00	30.310 
10:00	38.0	38.0	38.0	96	37.0	2	9	248	0.00	30.310 
10:05	38.2	38.2	38.2	96	37.2	2	5	248	0.00	30.310 
10:10	38.3	38.3	38.3	96	37.3	2	5	248	0.00	30.310 
10:15	38.3	38.3	38.3	96	37.3	1	7	270	0.00	30.309 
10:20	38.5	38.5	38.5	96	37.5	2	5	248	0.00	30.309 
10:25	38.6	38.6	38.6	96	37.6	2	5	248	0.00	30.309 
10:30	38.8	38.8	38.8	96	37.8	1	5	270	0.00	30.311 
10:35	38.9	38.9	38.9	96	37.9	2	6	248	0.00	30.311 
10:40	39.1	39.1	39.1	96	38.1	1	4	248	0.00	30.311 
10:45	39.2	39.2	39.2	96	38.2	1	5	248	0.00	30.310 
10:50	39.3	39.3	39.3	96	38.3	1	4	270	0.00	30.310 
10:55	39.6	39.6	39.6	96	38.6	0	3	248	0.00	30.310 
11:00	39.6	39.6	39.6	96	38.6	2	5	248	0.00	30.310 
11:05	39.8	39.8	39.8	96	38.8	1	5	248	0.00	30.310 
11:10	39.9	39.9	39.9	96	38.9	2	5	225	0.00	30.310 
11:15	40.1	40.1	40.1	96	39.1	1	4	225	0.00	30.313 
11:20	40.1	40.1	40.1	95	38.8	3	8	248	0.00	30.313 
11:25	40.1	40.1	40.1	95	38.8	2	7	248	0.00	30.313 
11:30	40.2	40.2	40.2	95	38.9	2	7	248	0.00	30.311 
11:35	40.3	40.3	40.3	95	39.0	2	5	248	0.00	30.311 
11:40	40.5	40.5	40.5	95	39.2	2	5	248	0.00	30.311 
11:45	40.6	40.6	40.6	95	39.3	1	5	248	0.00	30.307 
11:50	40.8	40.8	40.8	95	39.5	1	3	248	0.00	30.307 
11:55	40.9	40.9	40.9	95	39.6	2	4	248	0.00	30.307 
12:00	41.1	41.1	41.1	95	39.8	2	8	248	0.00	30.300 
12:05	41.1	41.1	41.1	94	39.5	2	6	225	0.00	30.300 
12:10	41.2	41.2	41.2	94	39.6	3	11	248	0.00	30.300 
12:15	41.5	41.5	41.5	94	39.9	1	3	248	0.00	30.296 
12:20	41.6	41.6	41.6	94	40.0	1	4	248	0.00	30.296 
12:25	41.6	41.6	41.6	93	39.7	1	4	248	0.00	30.296 
12:30	41.9	41.9	41.9	93	40.0	1	4	248	0.00	30.290 
12:35	41.9	41.9	41.9	93	40.0	2	7	248	0.00	30.290 
12:40	42.1	42.1	42.1	93	40.2	1	6	248	0.00	30.290 
12:45	42.2	42.2	42.2	92	40.0	1	7	248	0.00	30.282 
12:50	42.3	42.3	42.3	92	40.1	2	9	248	0.00	30.282 
12:55	42.5	42.5	42.5	92	40.3	2	5	248	0.00	30.282 
13:00	42.6	42.6	42.6	91	40.2	2	7	248	0.00	30.278 
13:05	42.8	42.8	42.8	91	40.4	2	7	248	0.00	30.278 
13:10	42.9	42.9	42.9	90	40.2	2	5	248	0.00	30.278 
13:15	42.9	42.9	42.9	90	40.2	2	7	248	0.00	30.275 
13:20	43.1	43.1	43.1	90	40.4	2	7	248	0.00	30.275 
13:25	43.2	43.2	43.2	90	40.5	1	4	248	0.00	30.275 
13:30	43.3	43.3	43.3	89	40.3	2	7	248	0.00	30.269 
13:35	43.5	43.5	43.5	89	40.5	3	8	248	0.00	30.269 
13:40	43.6	43.6	43.6	89	40.6	1	4	248	0.00	30.269 
13:45	43.8	43.8	43.8	88	40.5	1	4	248	0.00	30.261 
13:50	43.9	43.9	43.9	88	40.6	2	5	248	0.00	30.261 
13:55	44.1	44.1	44.1	87	40.5	2	5	248	0.00	30.261 
14:00	44.1	44.1	44.1	87	40.5	2	7	248	0.00	30.258 
14:05	44.2	44.2	44.2	87	40.6	1	5	270	0.00	30.258 
14:10	44.3	44.3	44.3	87	40.7	2	5	248	0.00	30.258 
14:15	44.5	44.5	44.5	86	40.6	2	5	248	0.00	30.258 
14:20	44.5	44.5	44.5	86	40.6	1	4	248	0.00	30.258 
14:25	44.6	44.6	44.6	85	40.4	2	6	248	0.00	30.258 
14:30	44.6	44.6	44.6	85	40.4	1	5	248	0.00	30.256 
14:35	44.6	44.6	44.6	85	40.4	2	5	248	0.00	30.256 
14:40	44.6	44.6	44.6	85	40.4	2	5	248	0.00	30.256 
14:45	44.6	44.6	44.6	85	40.4	2	9	248	0.00	30.249 
14:50	44.8	44.8	44.8	85	40.6	2	4	248	0.00	30.249 
14:55	44.9	44.9	44.9	85	40.7	1	4	248	0.00	30.249 
15:00	44.8	44.8	44.8	84	40.3	3	8	248	0.00	30.243 
15:05	44.8	44.8	44.8	84	40.3	2	9	248	0.00	30.243 
15:10	44.9	44.9	44.9	84	40.4	1	4	248	0.00	30.243 
15:15	45.1	45.1	45.1	84	40.6	2	5	248	0.00	30.240 
15:20	45.1	45.1	45.1	84	40.6	1	5	248	0.00	30.240 
15:25	45.1	45.1	45.1	83	40.3	2	6	248	0.00	30.240 
15:30	45.1	45.1	45.1	83	40.3	3	7	248	0.00	30.231 
15:35	45.2	45.2	45.2	83	40.3	2	6	248	0.00	30.231 
15:40	45.2	45.2	45.2	83	40.3	2	7	248	0.00	30.231 
15:45	45.4	45.4	45.4	83	40.5	3	6	248	0.00	30.228 
15:50	45.5	45.5	45.5	83	40.6	2	7	248	0.00	30.228 
15:55	45.7	45.7	45.7	83	40.8	2	6	248	0.00	30.228 
16:00	45.8	45.8	45.8	82	40.6	1	5	248	0.00	30.226 
16:05	45.8	45.8	45.8	82	40.6	1	3	248	0.00	30.226 
16:10	46.0	46.0	46.0	82	40.8	0	3	248	0.00	30.226 
16:15	46.1	46.1	46.1	82	40.9	0	2	248	0.00	30.223 
16:20	46.0	46.0	46.0	82	40.8	1	5	248	0.00	30.223 
16:25	45.8	45.8	45.8	82	40.6	1	4	248	0.00	30.223 
16:30	45.7	45.7	45.7	82	40.5	1	2	292	0.00	30.210 
16:35	45.5	45.5	45.5	83	40.6	1	4	292	0.00	30.210 
16:40	45.5	45.5	45.5	83	40.6	1	4	248	0.00	30.210 
16:45	45.5	45.5	45.5	83	40.6	1	3	248	0.00	30.216 
16:50	45.5	45.5	45.5	84	41.0	1	4	270	0.00	30.216 
16:55	45.4	45.4	45.4	84	40.9	0	4	248	0.00	30.216 
17:00	45.2	45.2	45.2	84	40.7	0	1	248	0.00	30.220 
17:05	45.2	45.2	45.2	84	40.7	0	1	248	0.00	30.220 
17:10	44.9	44.9	44.9	84	40.4	0	1	248	0.00	30.220 
17:15	44.8	44.8	44.8	84	40.3	0	1	248	0.00	30.224 
17:20	44.5	44.5	44.5	85	40.3	0	1	248	0.00	30.224 
17:25	44.2	44.2	44.2	85	40.0	0	1	248	0.00	30.224 
17:30	44.1	44.1	44.1	85	39.9	0	1	248	0.00	30.221 
17:35	43.8	43.8	43.8	86	39.9	0	1	248	0.00	30.221 
17:40	43.6	43.6	43.6	86	39.7	0	1	248	0.00	30.221 
17:45	43.5	43.5	43.5	87	39.9	0	1	248	0.00	30.218 
17:50	43.3	43.3	43.3	87	39.7	0	2	248	0.00	30.218 
17:55	43.3	43.3	43.3	88	40.0	0	2	248	0.00	30.218 
18:00	43.5	43.5	43.5	88	40.2	0	2	248	0.00	30.217 
18:05	43.6	43.6	43.6	88	40.3	0	2	248	0.00	30.217 
18:10	43.6	43.6	43.6	89	40.6	0	2	248	0.00	30.217 
18:15	43.6	43.6	43.6	89	40.6	0	3	248	0.00	30.227 
18:20	43.6	43.6	43.6	89	40.6	0	4	248	0.00	30.227 
18:25	43.8	43.8	43.8	89	40.8	0	3	248	0.00	30.227 
18:30	43.6	43.6	43.6	89	40.6	0	2	248	0.00	30.224 
18:35	43.6	43.6	43.6	89	40.6	0	2	248	0.00	30.224 
18:40	43.6	43.6	43.6	89	40.6	0	1	248	0.00	30.224 
18:45	43.5	43.5	43.5	89	40.5	0	3	248	0.00	30.225 
18:50	43.3	43.3	43.3	89	40.3	0	1	248	0.00	30.225 
18:55	43.2	43.2	43.2	89	40.2	0	1	248	0.00	30.225 
19:00	42.9	42.9	42.9	89	39.9	0	2	248	0.00	30.224 
19:05	42.8	42.8	42.8	89	39.8	0	1	248	0.00	30.224 
19:10	42.5	42.5	42.5	89	39.5	0	1	248	0.00	30.224 
19:15	42.3	42.3	42.3	89	39.3	0	1	248	0.00	30.218 
19:20	42.3	42.3	42.3	90	39.6	0	2	248	0.00	30.218 
19:25	42.3	42.3	42.3	90	39.6	0	1	248	0.00	30.218 
19:30	42.3	42.3	42.3	90	39.6	0	3	248	0.00	30.219 
19:35	42.5	42.5	42.5	91	40.1	1	4	248	0.00	30.219 
19:40	42.6	42.6	42.6	91	40.2	1	3	248	0.00	30.219 
19:45	42.8	42.8	42.8	91	40.4	1	4	248	0.00	30.214 
19:50	42.6	42.6	42.6	91	40.2	1	4	248	0.00	30.214 
19:55	42.6	42.6	42.6	91	40.2	1	4	248	0.00	30.214 
20:00	42.6	42.6	42.6	91	40.2	1	4	248	0.00	30.210 
20:05	42.6	42.6	42.6	91	40.2	1	4	248	0.00	30.210 
20:10	42.6	42.6	42.6	91	40.2	1	4	248	0.00	30.210 
20:15	42.6	42.6	42.6	91	40.2	1	4	248	0.00	30.210 
20:20	42.6	42.6	42.6	91	40.2	0	3	248	0.00	30.210 
20:25	42.5	42.5	42.5	91	40.1	0	2	248	0.00	30.210 
20:30	42.5	42.5	42.5	91	40.1	0	3	248	0.00	30.211 
20:35	42.3	42.3	42.3	91	39.9	1	4	248	0.00	30.211 
20:40	42.5	42.5	42.5	92	40.3	1	4	248	0.00	30.211 
20:45	42.5	42.5	42.5	92	40.3	1	4	248	0.00	30.207 
20:50	42.6	42.6	42.6	92	40.4	0	3	248	0.00	30.207 
20:55	42.6	42.6	42.6	92	40.4	1	4	248	0.00	30.207 
21:00	42.6	42.6	42.6	92	40.4	1	5	202	0.00	30.199 
21:05	42.6	42.6	42.6	92	40.4	1	4	112	0.00	30.199 
21:10	42.5	42.5	42.5	92	40.3	1	3	112	0.00	30.199 
21:15	42.5	42.5	42.5	92	40.3	0	5	248	0.00	30.196 
21:20	42.3	42.3	42.3	92	40.1	1	4	248	0.00	30.196 
21:25	42.3	42.3	42.3	92	40.1	0	2	248	0.00	30.196 
21:30	42.2	42.2	42.2	92	40.0	0	3	248	0.00	30.196 
21:35	42.1	42.1	42.1	92	39.9	0	4	248	0.00	30.196 
21:40	41.9	41.9	41.9	92	39.7	1	3	248	0.00	30.196 
21:45	41.9	41.9	41.9	92	39.7	1	3	248	0.00	30.193 
21:50	41.8	41.8	41.8	92	39.6	0	3	248	0.00	30.193 
21:55	41.8	41.8	41.8	92	39.6	1	4	270	0.00	30.193 
22:00	41.6	41.6	41.6	92	39.5	1	3	270	0.00	30.191 
22:05	41.5	41.5	41.5	92	39.4	1	4	270	0.00	30.191 
22:10	41.5	41.5	41.5	92	39.4	1	3	248	0.00	30.191 
22:15	41.5	41.5	41.5	92	39.4	1	5	248	0.00	30.188 
22:20	41.5	41.5	41.5	92	39.4	1	3	248	0.00	30.188 
22:25	41.3	41.3	41.3	92	39.2	0	2	248	0.00	30.188 
22:30	41.3	41.3	41.3	93	39.4	1	5	248	0.00	30.186 
22:35	41.3	41.3	41.3	93	39.4	1	6	248	0.00	30.186 
22:40	41.2	41.2	41.2	93	39.3	1	4	248	0.00	30.186 
22:45	41.2	41.2	41.2	93	39.3	1	4	90	0.00	30.181 
22:50	41.1	41.1	41.1	93	39.2	1	4	90	0.00	30.181 
22:55	41.1	41.1	41.1	93	39.2	2	6	225	0.00	30.181 
23:00	41.1	41.1	41.1	93	39.2	1	4	248	0.00	30.178 
23:05	41.1	41.1	41.1	93	39.2	1	4	248	0.00	30.178 
23:10	40.9	40.9	40.9	93	39.0	1	4	225	0.00	30.178 
23:15	40.9	40.9	40.9	93	39.0	0	3	225	0.00	30.168 
23:20	40.8	40.8	40.8	93	38.9	1	4	225	0.00	30.168 
23:25	40.8	40.8	40.8	93	38.9	1	5	248	0.00	30.168 
23:30	40.8	40.8	40.8	93	38.9	1	3	248	0.00	30.171 
23:35	40.8	40.8	40.8	93	38.9	1	4	248	0.00	30.171 
23:40	40.8	40.8	40.8	93	38.9	1	5	248	0.00	30.171 
23:45	40.6	40.6	40.6	93	38.7	1	5	248	0.00	30.172 
23:50	40.6	40.6	40.6	93	38.7	1	5	248	0.00	30.172 
23:55	40.6	40.6	40.6	93	38.7	1	3	248	0.00	30.172 

CoCoRaHS
IN-AL-39
A2 Web Hosting
Creative Commons License
GoDaddy
search engine by freefind advanced

loaded 2018-11-17 22:52:20 • last modified 2010-11-18 10:43:29
Privacy PolicyDisclaimer
• wx.awcolley.com is powered by PmWiki v.2002016 •
• all content (unless otherwise noted) © 2018 A W Colley